sensor_id;sensor_type;location;lat;lon;timestamp;temperature;humidity
19610;DHT22;9952;47.122;-1.638;2022-12-29T00:00:30;12.20;99.90
19610;DHT22;9952;47.122;-1.638;2022-12-29T00:05:10;12.10;99.90
19610;DHT22;9952;47.122;-1.638;2022-12-29T00:09:51;12.10;99.90
19610;DHT22;9952;47.122;-1.638;2022-12-29T00:14:32;12.10;99.90
19610;DHT22;9952;47.122;-1.638;2022-12-29T00:19:31;12.10;99.90
19610;DHT22;9952;47.122;-1.638;2022-12-29T00:24:30;12.10;99.90
19610;DHT22;9952;47.122;-1.638;2022-12-29T00:29:17;12.10;99.90
19610;DHT22;9952;47.122;-1.638;2022-12-29T00:34:16;12.10;99.90
19610;DHT22;9952;47.122;-1.638;2022-12-29T00:39:17;12.10;99.90
19610;DHT22;9952;47.122;-1.638;2022-12-29T00:44:17;12.10;99.90
19610;DHT22;9952;47.122;-1.638;2022-12-29T00:48:58;12.20;99.90
19610;DHT22;9952;47.122;-1.638;2022-12-29T00:53:57;12.20;99.90
19610;DHT22;9952;47.122;-1.638;2022-12-29T00:58:38;12.20;99.90
19610;DHT22;9952;47.122;-1.638;2022-12-29T01:03:18;12.20;99.90
19610;DHT22;9952;47.122;-1.638;2022-12-29T01:07:59;12.20;99.90
19610;DHT22;9952;47.122;-1.638;2022-12-29T01:12:40;12.20;99.90
19610;DHT22;9952;47.122;-1.638;2022-12-29T01:17:21;12.10;99.90
19610;DHT22;9952;47.122;-1.638;2022-12-29T01:22:01;12.00;99.90
19610;DHT22;9952;47.122;-1.638;2022-12-29T01:26:42;11.90;99.90
19610;DHT22;9952;47.122;-1.638;2022-12-29T01:31:23;11.90;99.90
19610;DHT22;9952;47.122;-1.638;2022-12-29T01:36:06;11.90;99.90
19610;DHT22;9952;47.122;-1.638;2022-12-29T01:40:47;11.90;99.90
19610;DHT22;9952;47.122;-1.638;2022-12-29T01:45:28;11.90;99.90
19610;DHT22;9952;47.122;-1.638;2022-12-29T01:54:59;11.80;99.90
19610;DHT22;9952;47.122;-1.638;2022-12-29T01:59:48;11.90;99.90
19610;DHT22;9952;47.122;-1.638;2022-12-29T02:04:32;11.80;99.90
19610;DHT22;9952;47.122;-1.638;2022-12-29T02:09:13;11.80;99.90
19610;DHT22;9952;47.122;-1.638;2022-12-29T02:13:54;11.80;99.90
19610;DHT22;9952;47.122;-1.638;2022-12-29T02:34:18;11.80;99.90
19610;DHT22;9952;47.122;-1.638;2022-12-29T02:39:23;11.70;99.90
19610;DHT22;9952;47.122;-1.638;2022-12-29T02:50:11;11.70;99.90
19610;DHT22;9952;47.122;-1.638;2022-12-29T02:54:55;11.70;99.90
19610;DHT22;9952;47.122;-1.638;2022-12-29T02:59:36;11.70;99.90
19610;DHT22;9952;47.122;-1.638;2022-12-29T03:14:57;11.70;99.90
19610;DHT22;9952;47.122;-1.638;2022-12-29T03:20:19;11.70;99.90
19610;DHT22;9952;47.122;-1.638;2022-12-29T03:25:13;11.70;99.90
19610;DHT22;9952;47.122;-1.638;2022-12-29T03:29:59;11.70;99.90
19610;DHT22;9952;47.122;-1.638;2022-12-29T03:34:41;11.70;99.90
19610;DHT22;9952;47.122;-1.638;2022-12-29T03:39:24;11.60;99.90
19610;DHT22;9952;47.122;-1.638;2022-12-29T03:44:06;11.60;99.90
19610;DHT22;9952;47.122;-1.638;2022-12-29T03:48:47;11.50;99.90
19610;DHT22;9952;47.122;-1.638;2022-12-29T03:53:28;11.50;99.90
19610;DHT22;9952;47.122;-1.638;2022-12-29T03:58:08;11.60;99.90
19610;DHT22;9952;47.122;-1.638;2022-12-29T04:02:49;11.50;99.90
19610;DHT22;9952;47.122;-1.638;2022-12-29T04:07:30;11.30;99.90
19610;DHT22;9952;47.122;-1.638;2022-12-29T04:12:11;11.30;99.90
19610;DHT22;9952;47.122;-1.638;2022-12-29T04:16:52;11.20;99.90
19610;DHT22;9952;47.122;-1.638;2022-12-29T04:21:33;11.20;99.90
19610;DHT22;9952;47.122;-1.638;2022-12-29T04:26:14;11.10;99.90
19610;DHT22;9952;47.122;-1.638;2022-12-29T04:30:54;11.10;99.90
19610;DHT22;9952;47.122;-1.638;2022-12-29T04:35:35;11.00;99.90
19610;DHT22;9952;47.122;-1.638;2022-12-29T04:40:16;10.90;99.90
19610;DHT22;9952;47.122;-1.638;2022-12-29T04:44:57;10.80;99.90
19610;DHT22;9952;47.122;-1.638;2022-12-29T04:49:37;10.80;99.90
19610;DHT22;9952;47.122;-1.638;2022-12-29T04:54:18;10.70;99.90
19610;DHT22;9952;47.122;-1.638;2022-12-29T04:58:59;10.70;99.90
19610;DHT22;9952;47.122;-1.638;2022-12-29T05:03:40;10.70;99.90
19610;DHT22;9952;47.122;-1.638;2022-12-29T05:08:21;10.70;99.90
19610;DHT22;9952;47.122;-1.638;2022-12-29T05:13:02;10.70;99.90
19610;DHT22;9952;47.122;-1.638;2022-12-29T05:17:42;10.80;99.90
19610;DHT22;9952;47.122;-1.638;2022-12-29T05:22:23;10.90;99.90
19610;DHT22;9952;47.122;-1.638;2022-12-29T05:27:04;10.90;99.90
19610;DHT22;9952;47.122;-1.638;2022-12-29T05:31:45;10.90;99.90
19610;DHT22;9952;47.122;-1.638;2022-12-29T05:36:26;11.00;99.90
19610;DHT22;9952;47.122;-1.638;2022-12-29T05:41:07;10.90;99.90
19610;DHT22;9952;47.122;-1.638;2022-12-29T05:45:50;10.90;99.90
19610;DHT22;9952;47.122;-1.638;2022-12-29T05:50:32;10.80;99.90
19610;DHT22;9952;47.122;-1.638;2022-12-29T05:55:13;10.80;99.90
19610;DHT22;9952;47.122;-1.638;2022-12-29T05:59:53;10.80;99.90
19610;DHT22;9952;47.122;-1.638;2022-12-29T06:04:34;10.80;99.90
19610;DHT22;9952;47.122;-1.638;2022-12-29T06:09:15;10.80;99.90
19610;DHT22;9952;47.122;-1.638;2022-12-29T06:13:56;10.80;99.90
19610;DHT22;9952;47.122;-1.638;2022-12-29T06:18:36;10.80;99.90
19610;DHT22;9952;47.122;-1.638;2022-12-29T06:23:17;10.80;99.90
19610;DHT22;9952;47.122;-1.638;2022-12-29T06:27:59;10.80;99.90
19610;DHT22;9952;47.122;-1.638;2022-12-29T06:32:40;10.80;99.90
19610;DHT22;9952;47.122;-1.638;2022-12-29T06:37:21;10.80;99.90
19610;DHT22;9952;47.122;-1.638;2022-12-29T06:42:02;10.80;99.90
19610;DHT22;9952;47.122;-1.638;2022-12-29T06:46:43;10.80;99.90
19610;DHT22;9952;47.122;-1.638;2022-12-29T06:51:23;10.80;99.90
19610;DHT22;9952;47.122;-1.638;2022-12-29T06:56:05;10.80;99.90
19610;DHT22;9952;47.122;-1.638;2022-12-29T07:00:45;10.70;99.90
19610;DHT22;9952;47.122;-1.638;2022-12-29T07:05:27;10.70;99.90
19610;DHT22;9952;47.122;-1.638;2022-12-29T07:10:08;10.60;99.90
19610;DHT22;9952;47.122;-1.638;2022-12-29T07:14:48;10.60;99.90
19610;DHT22;9952;47.122;-1.638;2022-12-29T07:19:29;10.60;99.90
19610;DHT22;9952;47.122;-1.638;2022-12-29T07:24:10;10.70;99.90
19610;DHT22;9952;47.122;-1.638;2022-12-29T07:28:51;10.70;99.90
19610;DHT22;9952;47.122;-1.638;2022-12-29T07:33:32;10.80;99.90
19610;DHT22;9952;47.122;-1.638;2022-12-29T07:38:13;10.90;99.90
19610;DHT22;9952;47.122;-1.638;2022-12-29T07:42:54;11.00;99.90
19610;DHT22;9952;47.122;-1.638;2022-12-29T07:47:35;11.10;99.90
19610;DHT22;9952;47.122;-1.638;2022-12-29T07:52:15;11.20;99.90
19610;DHT22;9952;47.122;-1.638;2022-12-29T07:56:56;11.20;99.90
19610;DHT22;9952;47.122;-1.638;2022-12-29T08:01:38;11.20;99.90
19610;DHT22;9952;47.122;-1.638;2022-12-29T08:06:19;11.30;99.90
19610;DHT22;9952;47.122;-1.638;2022-12-29T08:11:00;11.30;99.90
19610;DHT22;9952;47.122;-1.638;2022-12-29T08:15:41;11.30;99.90
19610;DHT22;9952;47.122;-1.638;2022-12-29T08:20:22;11.40;99.90
19610;DHT22;9952;47.122;-1.638;2022-12-29T08:25:03;11.40;99.90
19610;DHT22;9952;47.122;-1.638;2022-12-29T08:29:44;11.40;99.90
19610;DHT22;9952;47.122;-1.638;2022-12-29T08:34:25;11.40;99.90
19610;DHT22;9952;47.122;-1.638;2022-12-29T08:39:06;11.40;99.90
19610;DHT22;9952;47.122;-1.638;2022-12-29T08:43:47;11.40;99.90
19610;DHT22;9952;47.122;-1.638;2022-12-29T08:48:28;11.40;99.90
19610;DHT22;9952;47.122;-1.638;2022-12-29T08:53:09;11.40;99.90
19610;DHT22;9952;47.122;-1.638;2022-12-29T08:57:50;11.30;99.90
19610;DHT22;9952;47.122;-1.638;2022-12-29T09:02:31;11.30;99.90
19610;DHT22;9952;47.122;-1.638;2022-12-29T09:07:12;11.30;99.90
19610;DHT22;9952;47.122;-1.638;2022-12-29T09:11:53;11.40;99.90
19610;DHT22;9952;47.122;-1.638;2022-12-29T09:16:34;11.40;99.90
19610;DHT22;9952;47.122;-1.638;2022-12-29T09:21:17;11.50;99.90
19610;DHT22;9952;47.122;-1.638;2022-12-29T09:26:06;11.50;99.90
19610;DHT22;9952;47.122;-1.638;2022-12-29T09:30:48;11.60;99.90
19610;DHT22;9952;47.122;-1.638;2022-12-29T09:35:28;11.80;99.90
19610;DHT22;9952;47.122;-1.638;2022-12-29T09:40:31;12.20;99.90
19610;DHT22;9952;47.122;-1.638;2022-12-29T09:45:16;12.60;99.90
19610;DHT22;9952;47.122;-1.638;2022-12-29T09:50:01;12.90;99.90
19610;DHT22;9952;47.122;-1.638;2022-12-29T09:59:45;13.30;99.90
19610;DHT22;9952;47.122;-1.638;2022-12-29T10:04:27;13.30;99.90
19610;DHT22;9952;47.122;-1.638;2022-12-29T10:09:19;13.40;99.90
19610;DHT22;9952;47.122;-1.638;2022-12-29T10:14:13;13.50;99.90
19610;DHT22;9952;47.122;-1.638;2022-12-29T10:24:19;14.00;99.90
19610;DHT22;9952;47.122;-1.638;2022-12-29T10:29:08;13.80;99.90
19610;DHT22;9952;47.122;-1.638;2022-12-29T10:33:58;13.30;99.90
19610;DHT22;9952;47.122;-1.638;2022-12-29T10:38:48;12.90;99.90
19610;DHT22;9952;47.122;-1.638;2022-12-29T10:43:54;13.00;99.90
19610;DHT22;9952;47.122;-1.638;2022-12-29T10:48:35;13.20;99.90
19610;DHT22;9952;47.122;-1.638;2022-12-29T10:53:22;13.30;99.90
19610;DHT22;9952;47.122;-1.638;2022-12-29T10:58:08;13.50;99.90
19610;DHT22;9952;47.122;-1.638;2022-12-29T11:03:02;13.70;99.90
19610;DHT22;9952;47.122;-1.638;2022-12-29T11:07:54;13.80;99.90
19610;DHT22;9952;47.122;-1.638;2022-12-29T11:17:57;13.60;99.90
19610;DHT22;9952;47.122;-1.638;2022-12-29T11:22:44;13.80;99.90
19610;DHT22;9952;47.122;-1.638;2022-12-29T11:27:25;13.90;99.90
19610;DHT22;9952;47.122;-1.638;2022-12-29T11:32:22;13.90;99.90
19610;DHT22;9952;47.122;-1.638;2022-12-29T11:37:19;14.00;99.90
19610;DHT22;9952;47.122;-1.638;2022-12-29T11:42:03;14.20;99.90
19610;DHT22;9952;47.122;-1.638;2022-12-29T11:46:46;14.20;99.90
19610;DHT22;9952;47.122;-1.638;2022-12-29T11:51:35;14.10;99.90
19610;DHT22;9952;47.122;-1.638;2022-12-29T11:56:40;14.20;99.90
19610;DHT22;9952;47.122;-1.638;2022-12-29T12:01:36;14.20;99.90
19610;DHT22;9952;47.122;-1.638;2022-12-29T12:06:19;14.30;99.90
19610;DHT22;9952;47.122;-1.638;2022-12-29T12:11:07;14.30;99.90
19610;DHT22;9952;47.122;-1.638;2022-12-29T12:20:58;14.30;99.90
19610;DHT22;9952;47.122;-1.638;2022-12-29T12:26:11;14.30;99.90
19610;DHT22;9952;47.122;-1.638;2022-12-29T12:30:55;14.10;99.90
19610;DHT22;9952;47.122;-1.638;2022-12-29T12:35:47;13.90;99.90
19610;DHT22;9952;47.122;-1.638;2022-12-29T12:50:53;13.20;99.90
19610;DHT22;9952;47.122;-1.638;2022-12-29T13:00:54;12.40;99.90
19610;DHT22;9952;47.122;-1.638;2022-12-29T13:40:24;13.20;99.90
19610;DHT22;9952;47.122;-1.638;2022-12-29T13:45:10;13.20;99.90
19610;DHT22;9952;47.122;-1.638;2022-12-29T13:49:53;13.30;99.90
19610;DHT22;9952;47.122;-1.638;2022-12-29T13:54:45;13.40;99.90
19610;DHT22;9952;47.122;-1.638;2022-12-29T13:59:44;13.40;99.90
19610;DHT22;9952;47.122;-1.638;2022-12-29T14:04:31;13.40;99.90
19610;DHT22;9952;47.122;-1.638;2022-12-29T14:09:41;13.30;99.90
19610;DHT22;9952;47.122;-1.638;2022-12-29T14:14:27;13.30;99.90
19610;DHT22;9952;47.122;-1.638;2022-12-29T14:19:22;13.20;99.90
19610;DHT22;9952;47.122;-1.638;2022-12-29T14:34:29;13.10;99.90
19610;DHT22;9952;47.122;-1.638;2022-12-29T14:39:40;13.10;99.90
19610;DHT22;9952;47.122;-1.638;2022-12-29T14:44:21;12.80;99.90
19610;DHT22;9952;47.122;-1.638;2022-12-29T14:49:02;12.60;99.90
19610;DHT22;9952;47.122;-1.638;2022-12-29T14:53:51;12.50;99.90
19610;DHT22;9952;47.122;-1.638;2022-12-29T14:58:42;12.30;99.90
19610;DHT22;9952;47.122;-1.638;2022-12-29T15:03:50;12.20;99.90
19610;DHT22;9952;47.122;-1.638;2022-12-29T15:13:41;12.20;99.90
19610;DHT22;9952;47.122;-1.638;2022-12-29T15:18:25;11.90;99.90
19610;DHT22;9952;47.122;-1.638;2022-12-29T15:23:12;11.90;99.90
19610;DHT22;9952;47.122;-1.638;2022-12-29T15:28:01;11.90;99.90
19610;DHT22;9952;47.122;-1.638;2022-12-29T15:32:43;11.70;99.90
19610;DHT22;9952;47.122;-1.638;2022-12-29T15:37:27;11.40;99.90
19610;DHT22;9952;47.122;-1.638;2022-12-29T15:47:20;10.80;99.90
19610;DHT22;9952;47.122;-1.638;2022-12-29T15:52:06;10.70;99.90
19610;DHT22;9952;47.122;-1.638;2022-12-29T15:56:49;10.50;99.90
19610;DHT22;9952;47.122;-1.638;2022-12-29T16:01:32;10.40;99.90
19610;DHT22;9952;47.122;-1.638;2022-12-29T16:06:37;10.30;99.90
19610;DHT22;9952;47.122;-1.638;2022-12-29T16:11:23;10.20;99.90
19610;DHT22;9952;47.122;-1.638;2022-12-29T16:16:12;10.10;99.90
19610;DHT22;9952;47.122;-1.638;2022-12-29T16:20:56;10.10;99.90
19610;DHT22;9952;47.122;-1.638;2022-12-29T16:25:37;10.10;99.90
19610;DHT22;9952;47.122;-1.638;2022-12-29T16:30:28;10.00;99.90
19610;DHT22;9952;47.122;-1.638;2022-12-29T16:35:23;10.00;99.90
19610;DHT22;9952;47.122;-1.638;2022-12-29T16:40:27;10.00;99.90
19610;DHT22;9952;47.122;-1.638;2022-12-29T16:50:15;9.70;99.90
19610;DHT22;9952;47.122;-1.638;2022-12-29T16:54:59;9.50;99.90
19610;DHT22;9952;47.122;-1.638;2022-12-29T16:59:42;9.50;99.90
19610;DHT22;9952;47.122;-1.638;2022-12-29T17:04:23;9.40;99.90
19610;DHT22;9952;47.122;-1.638;2022-12-29T17:09:20;9.30;99.90
19610;DHT22;9952;47.122;-1.638;2022-12-29T17:14:01;9.30;99.90
19610;DHT22;9952;47.122;-1.638;2022-12-29T17:18:42;9.30;99.90
19610;DHT22;9952;47.122;-1.638;2022-12-29T17:23:23;9.20;99.90
19610;DHT22;9952;47.122;-1.638;2022-12-29T17:28:20;9.10;99.90
19610;DHT22;9952;47.122;-1.638;2022-12-29T17:33:04;9.10;99.90
19610;DHT22;9952;47.122;-1.638;2022-12-29T17:37:50;9.20;99.90
19610;DHT22;9952;47.122;-1.638;2022-12-29T17:42:31;9.30;99.90
19610;DHT22;9952;47.122;-1.638;2022-12-29T17:47:14;9.30;99.90
19610;DHT22;9952;47.122;-1.638;2022-12-29T17:51:56;9.40;99.90
19610;DHT22;9952;47.122;-1.638;2022-12-29T17:56:37;9.40;99.90
19610;DHT22;9952;47.122;-1.638;2022-12-29T18:01:18;9.40;99.90
19610;DHT22;9952;47.122;-1.638;2022-12-29T18:06:02;9.40;99.90
19610;DHT22;9952;47.122;-1.638;2022-12-29T18:10:46;9.30;99.90
19610;DHT22;9952;47.122;-1.638;2022-12-29T18:15:32;9.40;99.90
19610;DHT22;9952;47.122;-1.638;2022-12-29T18:20:16;9.40;99.90
19610;DHT22;9952;47.122;-1.638;2022-12-29T18:24:59;9.30;99.90
19610;DHT22;9952;47.122;-1.638;2022-12-29T18:29:41;9.30;99.90
19610;DHT22;9952;47.122;-1.638;2022-12-29T18:34:22;9.30;99.90
19610;DHT22;9952;47.122;-1.638;2022-12-29T18:39:02;9.30;99.90
19610;DHT22;9952;47.122;-1.638;2022-12-29T18:43:44;9.20;99.90
19610;DHT22;9952;47.122;-1.638;2022-12-29T18:48:25;9.20;99.90
19610;DHT22;9952;47.122;-1.638;2022-12-29T18:53:05;9.20;99.90
19610;DHT22;9952;47.122;-1.638;2022-12-29T18:57:46;9.10;99.90
19610;DHT22;9952;47.122;-1.638;2022-12-29T19:02:27;9.10;99.90
19610;DHT22;9952;47.122;-1.638;2022-12-29T19:07:08;9.00;99.90
19610;DHT22;9952;47.122;-1.638;2022-12-29T19:11:48;8.90;99.90
19610;DHT22;9952;47.122;-1.638;2022-12-29T19:16:30;8.70;99.90
19610;DHT22;9952;47.122;-1.638;2022-12-29T19:21:11;8.60;99.90
19610;DHT22;9952;47.122;-1.638;2022-12-29T19:25:53;8.50;99.90
19610;DHT22;9952;47.122;-1.638;2022-12-29T19:30:34;8.50;99.90
19610;DHT22;9952;47.122;-1.638;2022-12-29T19:35:16;8.40;99.90
19610;DHT22;9952;47.122;-1.638;2022-12-29T19:39:56;8.30;99.90
19610;DHT22;9952;47.122;-1.638;2022-12-29T19:44:37;8.20;99.90
19610;DHT22;9952;47.122;-1.638;2022-12-29T19:49:18;8.10;99.90
19610;DHT22;9952;47.122;-1.638;2022-12-29T19:53:59;8.00;99.90
19610;DHT22;9952;47.122;-1.638;2022-12-29T19:58:40;8.00;99.90
19610;DHT22;9952;47.122;-1.638;2022-12-29T20:03:21;7.90;99.90
19610;DHT22;9952;47.122;-1.638;2022-12-29T20:08:02;7.70;99.90
19610;DHT22;9952;47.122;-1.638;2022-12-29T20:12:42;7.80;99.90
19610;DHT22;9952;47.122;-1.638;2022-12-29T20:17:24;7.70;99.90
19610;DHT22;9952;47.122;-1.638;2022-12-29T20:22:06;7.60;99.90
19610;DHT22;9952;47.122;-1.638;2022-12-29T20:26:47;7.50;99.90
19610;DHT22;9952;47.122;-1.638;2022-12-29T20:31:31;7.50;99.90
19610;DHT22;9952;47.122;-1.638;2022-12-29T20:36:15;7.50;99.90
19610;DHT22;9952;47.122;-1.638;2022-12-29T20:40:56;7.50;99.90
19610;DHT22;9952;47.122;-1.638;2022-12-29T20:45:37;7.40;99.90
19610;DHT22;9952;47.122;-1.638;2022-12-29T20:50:19;7.30;99.90
19610;DHT22;9952;47.122;-1.638;2022-12-29T20:55:00;7.20;99.90
19610;DHT22;9952;47.122;-1.638;2022-12-29T20:59:41;7.20;99.90
19610;DHT22;9952;47.122;-1.638;2022-12-29T21:04:22;7.10;99.90
19610;DHT22;9952;47.122;-1.638;2022-12-29T21:09:04;7.10;99.90
19610;DHT22;9952;47.122;-1.638;2022-12-29T21:13:45;7.00;99.90
19610;DHT22;9952;47.122;-1.638;2022-12-29T21:18:27;7.00;99.90
19610;DHT22;9952;47.122;-1.638;2022-12-29T21:23:10;7.10;99.90
19610;DHT22;9952;47.122;-1.638;2022-12-29T21:27:51;7.10;99.90
19610;DHT22;9952;47.122;-1.638;2022-12-29T21:32:32;7.20;99.90
19610;DHT22;9952;47.122;-1.638;2022-12-29T21:37:12;7.20;99.90
19610;DHT22;9952;47.122;-1.638;2022-12-29T21:41:53;7.40;99.90
19610;DHT22;9952;47.122;-1.638;2022-12-29T21:46:40;7.40;99.90
19610;DHT22;9952;47.122;-1.638;2022-12-29T21:51:23;7.50;99.90
19610;DHT22;9952;47.122;-1.638;2022-12-29T21:56:22;7.50;99.90
19610;DHT22;9952;47.122;-1.638;2022-12-29T22:01:03;7.50;99.90
19610;DHT22;9952;47.122;-1.638;2022-12-29T22:06:02;7.50;99.90
19610;DHT22;9952;47.122;-1.638;2022-12-29T22:11:06;7.50;99.90
19610;DHT22;9952;47.122;-1.638;2022-12-29T22:16:10;7.60;99.90
19610;DHT22;9952;47.122;-1.638;2022-12-29T22:20:51;7.60;99.90
19610;DHT22;9952;47.122;-1.638;2022-12-29T22:25:32;7.70;99.90
19610;DHT22;9952;47.122;-1.638;2022-12-29T22:30:13;7.70;99.90
19610;DHT22;9952;47.122;-1.638;2022-12-29T22:34:54;7.70;99.90
19610;DHT22;9952;47.122;-1.638;2022-12-29T22:39:35;7.80;99.90
19610;DHT22;9952;47.122;-1.638;2022-12-29T22:44:16;7.80;99.90
19610;DHT22;9952;47.122;-1.638;2022-12-29T22:48:57;7.80;99.90
19610;DHT22;9952;47.122;-1.638;2022-12-29T22:53:37;7.70;99.90
19610;DHT22;9952;47.122;-1.638;2022-12-29T22:58:20;7.70;99.90
19610;DHT22;9952;47.122;-1.638;2022-12-29T23:03:00;7.80;99.90
19610;DHT22;9952;47.122;-1.638;2022-12-29T23:07:41;7.80;99.90
19610;DHT22;9952;47.122;-1.638;2022-12-29T23:12:22;7.80;99.90
19610;DHT22;9952;47.122;-1.638;2022-12-29T23:17:03;7.80;99.90
19610;DHT22;9952;47.122;-1.638;2022-12-29T23:21:43;7.80;99.90
19610;DHT22;9952;47.122;-1.638;2022-12-29T23:26:29;7.80;99.90
19610;DHT22;9952;47.122;-1.638;2022-12-29T23:31:11;7.80;99.90
19610;DHT22;9952;47.122;-1.638;2022-12-29T23:35:52;7.70;99.90
19610;DHT22;9952;47.122;-1.638;2022-12-29T23:40:33;7.70;99.90
19610;DHT22;9952;47.122;-1.638;2022-12-29T23:45:14;7.70;99.90
19610;DHT22;9952;47.122;-1.638;2022-12-29T23:49:55;7.70;99.90
19610;DHT22;9952;47.122;-1.638;2022-12-29T23:54:35;7.70;99.90
19610;DHT22;9952;47.122;-1.638;2022-12-29T23:59:16;7.70;99.90
